sensor_id;sensor_type;location;lat;lon;timestamp;temperature;humidity
15690;DHT22;7945;48.816;11.506;2023-05-02T00:00:43;12.50;99.90
15690;DHT22;7945;48.816;11.506;2023-05-02T00:03:10;12.50;99.90
15690;DHT22;7945;48.816;11.506;2023-05-02T00:05:37;12.50;99.90
15690;DHT22;7945;48.816;11.506;2023-05-02T00:08:06;12.50;99.90
15690;DHT22;7945;48.816;11.506;2023-05-02T00:10:33;12.50;99.90
15690;DHT22;7945;48.816;11.506;2023-05-02T00:13:00;12.50;99.90
15690;DHT22;7945;48.816;11.506;2023-05-02T00:15:26;12.40;99.90
15690;DHT22;7945;48.816;11.506;2023-05-02T00:17:53;12.40;99.90
15690;DHT22;7945;48.816;11.506;2023-05-02T00:20:20;12.40;99.90
15690;DHT22;7945;48.816;11.506;2023-05-02T00:22:47;12.40;99.90
15690;DHT22;7945;48.816;11.506;2023-05-02T00:25:15;12.40;99.90
15690;DHT22;7945;48.816;11.506;2023-05-02T00:27:41;12.30;99.90
15690;DHT22;7945;48.816;11.506;2023-05-02T00:30:09;12.30;99.90
15690;DHT22;7945;48.816;11.506;2023-05-02T00:32:35;12.30;99.90
15690;DHT22;7945;48.816;11.506;2023-05-02T00:35:02;12.20;99.90
15690;DHT22;7945;48.816;11.506;2023-05-02T00:37:29;12.20;99.90
15690;DHT22;7945;48.816;11.506;2023-05-02T00:39:57;12.20;99.90
15690;DHT22;7945;48.816;11.506;2023-05-02T00:42:25;12.20;99.90
15690;DHT22;7945;48.816;11.506;2023-05-02T00:44:53;12.20;99.90
15690;DHT22;7945;48.816;11.506;2023-05-02T00:47:20;12.20;99.90
15690;DHT22;7945;48.816;11.506;2023-05-02T00:49:48;12.20;99.90
15690;DHT22;7945;48.816;11.506;2023-05-02T00:52:15;12.10;99.90
15690;DHT22;7945;48.816;11.506;2023-05-02T00:54:43;12.10;99.90
15690;DHT22;7945;48.816;11.506;2023-05-02T00:57:09;12.10;99.90
15690;DHT22;7945;48.816;11.506;2023-05-02T00:59:38;12.10;99.90
15690;DHT22;7945;48.816;11.506;2023-05-02T01:02:14;12.00;99.90
15690;DHT22;7945;48.816;11.506;2023-05-02T01:04:52;12.00;99.90
15690;DHT22;7945;48.816;11.506;2023-05-02T01:07:34;12.00;99.90
15690;DHT22;7945;48.816;11.506;2023-05-02T01:10:16;12.00;99.90
15690;DHT22;7945;48.816;11.506;2023-05-02T01:12:47;12.00;99.90
15690;DHT22;7945;48.816;11.506;2023-05-02T01:15:20;11.90;99.90
15690;DHT22;7945;48.816;11.506;2023-05-02T01:17:49;11.90;99.90
15690;DHT22;7945;48.816;11.506;2023-05-02T01:20:19;11.90;99.90
15690;DHT22;7945;48.816;11.506;2023-05-02T01:22:47;11.90;99.90
15690;DHT22;7945;48.816;11.506;2023-05-02T01:25:22;12.00;99.90
15690;DHT22;7945;48.816;11.506;2023-05-02T01:27:56;12.00;99.90
15690;DHT22;7945;48.816;11.506;2023-05-02T01:30:27;12.00;99.90
15690;DHT22;7945;48.816;11.506;2023-05-02T01:32:56;12.00;99.90
15690;DHT22;7945;48.816;11.506;2023-05-02T01:35:25;11.90;99.90
15690;DHT22;7945;48.816;11.506;2023-05-02T01:37:52;11.90;99.90
15690;DHT22;7945;48.816;11.506;2023-05-02T01:40:20;11.90;99.90
15690;DHT22;7945;48.816;11.506;2023-05-02T01:42:50;11.90;99.90
15690;DHT22;7945;48.816;11.506;2023-05-02T01:45:18;11.90;99.90
15690;DHT22;7945;48.816;11.506;2023-05-02T01:47:47;11.90;99.90
15690;DHT22;7945;48.816;11.506;2023-05-02T01:50:18;12.00;99.90
15690;DHT22;7945;48.816;11.506;2023-05-02T01:52:46;12.00;99.90
15690;DHT22;7945;48.816;11.506;2023-05-02T01:55:15;12.00;99.90
15690;DHT22;7945;48.816;11.506;2023-05-02T01:57:44;12.00;99.90
15690;DHT22;7945;48.816;11.506;2023-05-02T02:00:12;12.00;99.90
15690;DHT22;7945;48.816;11.506;2023-05-02T02:02:40;11.90;99.90
15690;DHT22;7945;48.816;11.506;2023-05-02T02:05:10;11.90;99.90
15690;DHT22;7945;48.816;11.506;2023-05-02T02:07:38;12.00;99.90
15690;DHT22;7945;48.816;11.506;2023-05-02T02:10:06;11.90;99.90
15690;DHT22;7945;48.816;11.506;2023-05-02T02:12:37;12.00;99.90
15690;DHT22;7945;48.816;11.506;2023-05-02T02:15:09;12.00;99.90
15690;DHT22;7945;48.816;11.506;2023-05-02T02:17:42;11.90;99.90
15690;DHT22;7945;48.816;11.506;2023-05-02T02:20:14;11.90;99.90
15690;DHT22;7945;48.816;11.506;2023-05-02T02:22:43;11.90;99.90
15690;DHT22;7945;48.816;11.506;2023-05-02T02:25:13;11.90;99.90
15690;DHT22;7945;48.816;11.506;2023-05-02T02:27:40;11.90;99.90
15690;DHT22;7945;48.816;11.506;2023-05-02T02:30:08;11.90;99.90
15690;DHT22;7945;48.816;11.506;2023-05-02T02:32:35;11.90;99.90
15690;DHT22;7945;48.816;11.506;2023-05-02T02:35:02;11.80;99.90
15690;DHT22;7945;48.816;11.506;2023-05-02T02:37:33;11.70;99.90
15690;DHT22;7945;48.816;11.506;2023-05-02T02:40:07;11.70;99.90
15690;DHT22;7945;48.816;11.506;2023-05-02T02:42:38;11.70;99.90
15690;DHT22;7945;48.816;11.506;2023-05-02T02:45:19;11.70;99.90
15690;DHT22;7945;48.816;11.506;2023-05-02T02:47:53;11.70;99.90
15690;DHT22;7945;48.816;11.506;2023-05-02T02:50:29;11.70;99.90
15690;DHT22;7945;48.816;11.506;2023-05-02T02:52:59;11.70;99.90
15690;DHT22;7945;48.816;11.506;2023-05-02T02:55:33;11.70;99.90
15690;DHT22;7945;48.816;11.506;2023-05-02T02:58:10;11.80;99.90
15690;DHT22;7945;48.816;11.506;2023-05-02T03:00:40;11.70;99.90
15690;DHT22;7945;48.816;11.506;2023-05-02T03:03:07;11.70;99.90
15690;DHT22;7945;48.816;11.506;2023-05-02T03:05:35;11.80;99.90
15690;DHT22;7945;48.816;11.506;2023-05-02T03:08:03;11.80;99.90
15690;DHT22;7945;48.816;11.506;2023-05-02T03:10:30;11.80;99.90
15690;DHT22;7945;48.816;11.506;2023-05-02T03:12:58;11.90;99.90
15690;DHT22;7945;48.816;11.506;2023-05-02T03:15:59;11.90;99.90
15690;DHT22;7945;48.816;11.506;2023-05-02T03:18:32;11.90;99.90
15690;DHT22;7945;48.816;11.506;2023-05-02T03:20:59;11.90;99.90
15690;DHT22;7945;48.816;11.506;2023-05-02T03:23:27;11.80;99.90
15690;DHT22;7945;48.816;11.506;2023-05-02T03:25:54;11.80;99.90
15690;DHT22;7945;48.816;11.506;2023-05-02T03:28:21;11.80;99.90
15690;DHT22;7945;48.816;11.506;2023-05-02T03:30:47;11.80;99.90
15690;DHT22;7945;48.816;11.506;2023-05-02T03:33:14;11.80;99.90
15690;DHT22;7945;48.816;11.506;2023-05-02T03:35:41;11.80;99.90
15690;DHT22;7945;48.816;11.506;2023-05-02T03:38:08;11.80;99.90
15690;DHT22;7945;48.816;11.506;2023-05-02T03:40:36;11.90;99.90
15690;DHT22;7945;48.816;11.506;2023-05-02T03:43:03;11.90;99.90
15690;DHT22;7945;48.816;11.506;2023-05-02T03:45:29;11.90;99.90
15690;DHT22;7945;48.816;11.506;2023-05-02T03:47:56;11.90;99.90
15690;DHT22;7945;48.816;11.506;2023-05-02T03:50:23;11.80;99.90
15690;DHT22;7945;48.816;11.506;2023-05-02T03:52:50;11.80;99.90
15690;DHT22;7945;48.816;11.506;2023-05-02T03:55:17;11.80;99.90
15690;DHT22;7945;48.816;11.506;2023-05-02T03:57:45;11.80;99.90
15690;DHT22;7945;48.816;11.506;2023-05-02T04:00:12;11.80;99.90
15690;DHT22;7945;48.816;11.506;2023-05-02T04:02:39;11.70;99.90
15690;DHT22;7945;48.816;11.506;2023-05-02T04:05:06;11.70;99.90
15690;DHT22;7945;48.816;11.506;2023-05-02T04:07:34;11.70;99.90
15690;DHT22;7945;48.816;11.506;2023-05-02T04:10:00;11.70;99.90
15690;DHT22;7945;48.816;11.506;2023-05-02T04:12:27;11.70;99.90
15690;DHT22;7945;48.816;11.506;2023-05-02T04:14:55;11.60;99.90
15690;DHT22;7945;48.816;11.506;2023-05-02T04:17:22;11.70;99.90
15690;DHT22;7945;48.816;11.506;2023-05-02T04:19:49;11.70;99.90
15690;DHT22;7945;48.816;11.506;2023-05-02T04:22:15;11.70;99.90
15690;DHT22;7945;48.816;11.506;2023-05-02T04:24:42;11.70;99.90
15690;DHT22;7945;48.816;11.506;2023-05-02T04:27:09;11.70;99.90
15690;DHT22;7945;48.816;11.506;2023-05-02T04:29:35;11.70;99.90
15690;DHT22;7945;48.816;11.506;2023-05-02T04:32:04;11.70;99.90
15690;DHT22;7945;48.816;11.506;2023-05-02T04:34:31;11.70;99.90
15690;DHT22;7945;48.816;11.506;2023-05-02T04:36:57;11.70;99.90
15690;DHT22;7945;48.816;11.506;2023-05-02T04:39:24;11.70;99.90
15690;DHT22;7945;48.816;11.506;2023-05-02T04:41:51;11.70;99.90
15690;DHT22;7945;48.816;11.506;2023-05-02T04:44:18;11.80;99.90
15690;DHT22;7945;48.816;11.506;2023-05-02T04:46:44;11.80;99.90
15690;DHT22;7945;48.816;11.506;2023-05-02T04:49:12;11.80;99.90
15690;DHT22;7945;48.816;11.506;2023-05-02T04:51:39;11.80;99.90
15690;DHT22;7945;48.816;11.506;2023-05-02T04:54:06;11.80;99.90
15690;DHT22;7945;48.816;11.506;2023-05-02T04:56:32;11.90;99.90
15690;DHT22;7945;48.816;11.506;2023-05-02T04:58:59;11.90;99.90
15690;DHT22;7945;48.816;11.506;2023-05-02T05:01:26;11.90;99.90
15690;DHT22;7945;48.816;11.506;2023-05-02T05:03:53;11.90;99.90
15690;DHT22;7945;48.816;11.506;2023-05-02T05:06:21;11.90;99.90
15690;DHT22;7945;48.816;11.506;2023-05-02T05:08:48;11.90;99.90
15690;DHT22;7945;48.816;11.506;2023-05-02T05:11:15;12.00;99.90
15690;DHT22;7945;48.816;11.506;2023-05-02T05:13:42;11.90;99.90
15690;DHT22;7945;48.816;11.506;2023-05-02T05:16:09;11.90;99.90
15690;DHT22;7945;48.816;11.506;2023-05-02T05:18:36;11.90;99.90
15690;DHT22;7945;48.816;11.506;2023-05-02T05:21:05;11.90;99.90
15690;DHT22;7945;48.816;11.506;2023-05-02T05:23:34;11.90;99.90
15690;DHT22;7945;48.816;11.506;2023-05-02T05:26:08;11.90;99.90
15690;DHT22;7945;48.816;11.506;2023-05-02T05:28:35;12.00;99.90
15690;DHT22;7945;48.816;11.506;2023-05-02T05:31:04;11.90;99.90
15690;DHT22;7945;48.816;11.506;2023-05-02T05:33:31;12.00;99.90
15690;DHT22;7945;48.816;11.506;2023-05-02T05:36:03;12.00;99.90
15690;DHT22;7945;48.816;11.506;2023-05-02T05:38:30;12.00;99.90
15690;DHT22;7945;48.816;11.506;2023-05-02T05:40:58;12.00;99.90
15690;DHT22;7945;48.816;11.506;2023-05-02T05:43:25;12.00;99.90
15690;DHT22;7945;48.816;11.506;2023-05-02T05:45:52;12.00;99.90
15690;DHT22;7945;48.816;11.506;2023-05-02T05:48:19;11.90;99.90
15690;DHT22;7945;48.816;11.506;2023-05-02T05:50:46;12.00;99.90
15690;DHT22;7945;48.816;11.506;2023-05-02T05:53:13;12.00;99.90
15690;DHT22;7945;48.816;11.506;2023-05-02T05:55:40;12.20;99.90
15690;DHT22;7945;48.816;11.506;2023-05-02T05:58:09;12.30;99.90
15690;DHT22;7945;48.816;11.506;2023-05-02T06:00:36;12.30;99.90
15690;DHT22;7945;48.816;11.506;2023-05-02T06:03:03;12.20;99.90
15690;DHT22;7945;48.816;11.506;2023-05-02T06:05:31;12.20;99.90
15690;DHT22;7945;48.816;11.506;2023-05-02T06:07:58;12.30;99.90
15690;DHT22;7945;48.816;11.506;2023-05-02T06:10:25;12.30;99.90
15690;DHT22;7945;48.816;11.506;2023-05-02T06:15:21;12.40;99.90
15690;DHT22;7945;48.816;11.506;2023-05-02T06:17:49;12.40;99.90
15690;DHT22;7945;48.816;11.506;2023-05-02T06:20:16;12.30;99.90
15690;DHT22;7945;48.816;11.506;2023-05-02T06:22:43;12.40;99.90
15690;DHT22;7945;48.816;11.506;2023-05-02T06:25:10;12.40;99.90
15690;DHT22;7945;48.816;11.506;2023-05-02T06:27:37;12.40;99.90
15690;DHT22;7945;48.816;11.506;2023-05-02T06:30:05;12.40;99.90
15690;DHT22;7945;48.816;11.506;2023-05-02T06:32:33;12.40;99.90
15690;DHT22;7945;48.816;11.506;2023-05-02T06:35:00;12.40;99.90
15690;DHT22;7945;48.816;11.506;2023-05-02T06:37:31;12.50;99.90
15690;DHT22;7945;48.816;11.506;2023-05-02T06:39:58;12.60;99.90
15690;DHT22;7945;48.816;11.506;2023-05-02T06:42:24;12.60;99.90
15690;DHT22;7945;48.816;11.506;2023-05-02T06:44:51;12.60;99.90
15690;DHT22;7945;48.816;11.506;2023-05-02T06:47:18;12.60;99.90
15690;DHT22;7945;48.816;11.506;2023-05-02T06:49:46;12.70;99.90
15690;DHT22;7945;48.816;11.506;2023-05-02T06:52:12;12.70;99.90
15690;DHT22;7945;48.816;11.506;2023-05-02T06:54:39;12.70;99.90
15690;DHT22;7945;48.816;11.506;2023-05-02T06:57:06;12.70;99.90
15690;DHT22;7945;48.816;11.506;2023-05-02T06:59:33;12.70;99.90
15690;DHT22;7945;48.816;11.506;2023-05-02T07:02:00;12.80;99.90
15690;DHT22;7945;48.816;11.506;2023-05-02T07:04:27;12.90;99.90
15690;DHT22;7945;48.816;11.506;2023-05-02T07:06:55;12.90;99.90
15690;DHT22;7945;48.816;11.506;2023-05-02T07:09:21;12.90;99.90
15690;DHT22;7945;48.816;11.506;2023-05-02T07:11:48;12.90;99.90
15690;DHT22;7945;48.816;11.506;2023-05-02T07:14:15;13.00;99.90
15690;DHT22;7945;48.816;11.506;2023-05-02T07:16:41;13.00;99.90
15690;DHT22;7945;48.816;11.506;2023-05-02T07:19:08;13.10;99.90
15690;DHT22;7945;48.816;11.506;2023-05-02T07:21:35;13.20;99.90
15690;DHT22;7945;48.816;11.506;2023-05-02T07:24:03;13.30;99.90
15690;DHT22;7945;48.816;11.506;2023-05-02T07:26:30;13.40;99.90
15690;DHT22;7945;48.816;11.506;2023-05-02T07:28:57;13.40;99.90
15690;DHT22;7945;48.816;11.506;2023-05-02T07:31:24;13.50;99.90
15690;DHT22;7945;48.816;11.506;2023-05-02T07:33:50;13.60;99.90
15690;DHT22;7945;48.816;11.506;2023-05-02T07:36:17;13.70;99.90
15690;DHT22;7945;48.816;11.506;2023-05-02T07:38:44;13.80;99.90
15690;DHT22;7945;48.816;11.506;2023-05-02T07:41:13;13.80;99.90
15690;DHT22;7945;48.816;11.506;2023-05-02T07:43:40;13.80;99.90
15690;DHT22;7945;48.816;11.506;2023-05-02T07:46:06;13.80;99.90
15690;DHT22;7945;48.816;11.506;2023-05-02T07:48:33;13.80;99.90
15690;DHT22;7945;48.816;11.506;2023-05-02T07:51:07;13.80;99.90
15690;DHT22;7945;48.816;11.506;2023-05-02T07:53:34;13.90;99.90
15690;DHT22;7945;48.816;11.506;2023-05-02T07:56:02;13.90;99.90
15690;DHT22;7945;48.816;11.506;2023-05-02T07:58:30;13.90;99.90
15690;DHT22;7945;48.816;11.506;2023-05-02T08:00:57;14.00;99.90
15690;DHT22;7945;48.816;11.506;2023-05-02T08:03:24;14.10;99.90
15690;DHT22;7945;48.816;11.506;2023-05-02T08:05:51;14.10;99.90
15690;DHT22;7945;48.816;11.506;2023-05-02T08:08:18;14.10;99.90
15690;DHT22;7945;48.816;11.506;2023-05-02T08:10:44;14.20;99.90
15690;DHT22;7945;48.816;11.506;2023-05-02T08:13:11;14.10;99.90
15690;DHT22;7945;48.816;11.506;2023-05-02T08:15:40;14.10;99.90
15690;DHT22;7945;48.816;11.506;2023-05-02T08:18:07;14.00;99.90
15690;DHT22;7945;48.816;11.506;2023-05-02T08:20:34;14.00;99.90
15690;DHT22;7945;48.816;11.506;2023-05-02T08:23:00;14.00;99.90
15690;DHT22;7945;48.816;11.506;2023-05-02T08:25:27;14.00;99.90
15690;DHT22;7945;48.816;11.506;2023-05-02T08:27:54;14.10;99.90
15690;DHT22;7945;48.816;11.506;2023-05-02T08:30:21;14.10;99.90
15690;DHT22;7945;48.816;11.506;2023-05-02T08:32:50;14.10;99.90
15690;DHT22;7945;48.816;11.506;2023-05-02T08:35:17;14.20;99.90
15690;DHT22;7945;48.816;11.506;2023-05-02T08:37:43;14.20;99.90
15690;DHT22;7945;48.816;11.506;2023-05-02T08:40:11;14.20;99.90
15690;DHT22;7945;48.816;11.506;2023-05-02T08:42:41;14.30;99.90
15690;DHT22;7945;48.816;11.506;2023-05-02T08:45:10;14.40;99.90
15690;DHT22;7945;48.816;11.506;2023-05-02T08:47:38;14.40;99.90
15690;DHT22;7945;48.816;11.506;2023-05-02T08:50:08;14.50;99.90
15690;DHT22;7945;48.816;11.506;2023-05-02T08:52:36;14.60;99.90
15690;DHT22;7945;48.816;11.506;2023-05-02T08:55:05;14.60;99.90
15690;DHT22;7945;48.816;11.506;2023-05-02T08:57:32;14.70;99.90
15690;DHT22;7945;48.816;11.506;2023-05-02T08:59:59;14.80;99.90
15690;DHT22;7945;48.816;11.506;2023-05-02T09:02:41;14.80;99.90
15690;DHT22;7945;48.816;11.506;2023-05-02T09:05:18;14.90;99.90
15690;DHT22;7945;48.816;11.506;2023-05-02T09:07:46;14.90;99.90
15690;DHT22;7945;48.816;11.506;2023-05-02T09:10:14;15.00;99.90
15690;DHT22;7945;48.816;11.506;2023-05-02T09:12:41;15.00;99.90
15690;DHT22;7945;48.816;11.506;2023-05-02T09:15:09;15.00;99.90
15690;DHT22;7945;48.816;11.506;2023-05-02T09:17:40;15.10;99.90
15690;DHT22;7945;48.816;11.506;2023-05-02T09:20:09;15.10;99.90
15690;DHT22;7945;48.816;11.506;2023-05-02T09:22:38;15.10;99.90
15690;DHT22;7945;48.816;11.506;2023-05-02T09:25:05;15.00;99.90
15690;DHT22;7945;48.816;11.506;2023-05-02T09:27:47;15.00;99.90
15690;DHT22;7945;48.816;11.506;2023-05-02T09:30:21;15.00;99.90
15690;DHT22;7945;48.816;11.506;2023-05-02T09:32:49;15.00;99.90
15690;DHT22;7945;48.816;11.506;2023-05-02T09:35:17;15.00;99.90
15690;DHT22;7945;48.816;11.506;2023-05-02T09:37:51;15.00;99.90
15690;DHT22;7945;48.816;11.506;2023-05-02T09:40:18;15.10;99.90
15690;DHT22;7945;48.816;11.506;2023-05-02T09:42:45;15.10;99.90
15690;DHT22;7945;48.816;11.506;2023-05-02T09:45:20;15.20;99.90
15690;DHT22;7945;48.816;11.506;2023-05-02T09:47:47;15.20;99.90
15690;DHT22;7945;48.816;11.506;2023-05-02T09:50:32;15.20;99.90
15690;DHT22;7945;48.816;11.506;2023-05-02T09:53:02;15.30;99.90
15690;DHT22;7945;48.816;11.506;2023-05-02T09:55:28;15.30;99.90
15690;DHT22;7945;48.816;11.506;2023-05-02T09:57:55;15.40;99.90
15690;DHT22;7945;48.816;11.506;2023-05-02T10:00:25;15.50;99.90
15690;DHT22;7945;48.816;11.506;2023-05-02T10:03:05;15.60;99.90
15690;DHT22;7945;48.816;11.506;2023-05-02T10:05:35;15.70;99.90
15690;DHT22;7945;48.816;11.506;2023-05-02T10:08:05;15.90;99.90
15690;DHT22;7945;48.816;11.506;2023-05-02T10:10:32;16.10;99.90
15690;DHT22;7945;48.816;11.506;2023-05-02T10:13:02;16.10;99.90
15690;DHT22;7945;48.816;11.506;2023-05-02T10:15:31;16.20;99.90
15690;DHT22;7945;48.816;11.506;2023-05-02T10:17:59;16.20;99.70
15690;DHT22;7945;48.816;11.506;2023-05-02T10:20:30;16.40;99.90
15690;DHT22;7945;48.816;11.506;2023-05-02T10:22:58;16.40;99.70
15690;DHT22;7945;48.816;11.506;2023-05-02T10:25:27;16.50;99.40
15690;DHT22;7945;48.816;11.506;2023-05-02T10:27:55;16.60;99.60
15690;DHT22;7945;48.816;11.506;2023-05-02T10:30:24;16.70;99.20
15690;DHT22;7945;48.816;11.506;2023-05-02T10:32:52;16.90;98.60
15690;DHT22;7945;48.816;11.506;2023-05-02T10:35:19;17.20;98.30
15690;DHT22;7945;48.816;11.506;2023-05-02T10:37:46;17.40;97.90
15690;DHT22;7945;48.816;11.506;2023-05-02T10:40:14;17.70;98.30
15690;DHT22;7945;48.816;11.506;2023-05-02T10:42:44;18.00;97.80
15690;DHT22;7945;48.816;11.506;2023-05-02T10:45:12;18.30;97.40
15690;DHT22;7945;48.816;11.506;2023-05-02T10:48:13;18.50;97.00
15690;DHT22;7945;48.816;11.506;2023-05-02T10:50:44;18.50;96.60
15690;DHT22;7945;48.816;11.506;2023-05-02T10:53:26;18.60;96.30
15690;DHT22;7945;48.816;11.506;2023-05-02T10:56:14;18.50;96.20
15690;DHT22;7945;48.816;11.506;2023-05-02T10:58:44;18.40;96.30
15690;DHT22;7945;48.816;11.506;2023-05-02T11:01:33;18.30;96.30
15690;DHT22;7945;48.816;11.506;2023-05-02T11:04:02;18.20;96.30
15690;DHT22;7945;48.816;11.506;2023-05-02T11:06:30;17.90;96.60
15690;DHT22;7945;48.816;11.506;2023-05-02T11:09:31;17.70;97.00
15690;DHT22;7945;48.816;11.506;2023-05-02T11:12:02;17.70;97.20
15690;DHT22;7945;48.816;11.506;2023-05-02T11:14:44;17.60;96.80
15690;DHT22;7945;48.816;11.506;2023-05-02T11:17:15;17.70;95.90
15690;DHT22;7945;48.816;11.506;2023-05-02T11:22:56;18.10;95.60
15690;DHT22;7945;48.816;11.506;2023-05-02T11:25:34;18.20;95.60
15690;DHT22;7945;48.816;11.506;2023-05-02T11:28:03;18.40;94.90
15690;DHT22;7945;48.816;11.506;2023-05-02T11:30:42;18.50;95.10
15690;DHT22;7945;48.816;11.506;2023-05-02T11:33:13;18.60;95.80
15690;DHT22;7945;48.816;11.506;2023-05-02T11:35:42;18.60;95.50
15690;DHT22;7945;48.816;11.506;2023-05-02T11:38:11;18.40;95.40
15690;DHT22;7945;48.816;11.506;2023-05-02T11:40:38;18.30;95.50
15690;DHT22;7945;48.816;11.506;2023-05-02T11:43:12;18.30;95.50
15690;DHT22;7945;48.816;11.506;2023-05-02T11:45:40;18.30;95.30
15690;DHT22;7945;48.816;11.506;2023-05-02T11:48:09;18.20;96.10
15690;DHT22;7945;48.816;11.506;2023-05-02T11:50:41;18.20;96.20
15690;DHT22;7945;48.816;11.506;2023-05-02T11:53:09;18.20;96.50
15690;DHT22;7945;48.816;11.506;2023-05-02T11:55:36;18.20;95.40
15690;DHT22;7945;48.816;11.506;2023-05-02T11:58:03;18.20;94.60
15690;DHT22;7945;48.816;11.506;2023-05-02T12:00:30;18.30;94.50
15690;DHT22;7945;48.816;11.506;2023-05-02T12:02:58;18.40;94.10
15690;DHT22;7945;48.816;11.506;2023-05-02T12:05:28;18.40;94.40
15690;DHT22;7945;48.816;11.506;2023-05-02T12:07:55;18.50;94.10
15690;DHT22;7945;48.816;11.506;2023-05-02T12:10:22;18.50;94.40
15690;DHT22;7945;48.816;11.506;2023-05-02T12:13:03;18.50;93.90
15690;DHT22;7945;48.816;11.506;2023-05-02T12:15:30;18.50;94.30
15690;DHT22;7945;48.816;11.506;2023-05-02T12:17:58;18.60;94.40
15690;DHT22;7945;48.816;11.506;2023-05-02T12:20:26;18.70;94.50
15690;DHT22;7945;48.816;11.506;2023-05-02T12:22:53;18.60;93.60
15690;DHT22;7945;48.816;11.506;2023-05-02T12:25:20;18.60;93.80
15690;DHT22;7945;48.816;11.506;2023-05-02T12:27:59;18.60;93.50
15690;DHT22;7945;48.816;11.506;2023-05-02T12:30:27;18.50;93.80
15690;DHT22;7945;48.816;11.506;2023-05-02T12:32:58;18.50;94.20
15690;DHT22;7945;48.816;11.506;2023-05-02T12:35:26;18.40;93.70
15690;DHT22;7945;48.816;11.506;2023-05-02T12:37:54;18.50;93.60
15690;DHT22;7945;48.816;11.506;2023-05-02T12:40:21;18.60;93.20
15690;DHT22;7945;48.816;11.506;2023-05-02T12:42:57;18.60;93.00
15690;DHT22;7945;48.816;11.506;2023-05-02T12:45:25;18.60;92.80
15690;DHT22;7945;48.816;11.506;2023-05-02T12:47:53;18.80;93.00
15690;DHT22;7945;48.816;11.506;2023-05-02T12:50:34;19.00;92.30
15690;DHT22;7945;48.816;11.506;2023-05-02T12:53:01;19.10;92.00
15690;DHT22;7945;48.816;11.506;2023-05-02T12:55:29;19.30;91.90
15690;DHT22;7945;48.816;11.506;2023-05-02T12:57:59;19.50;91.50
15690;DHT22;7945;48.816;11.506;2023-05-02T13:00:27;19.60;90.30
15690;DHT22;7945;48.816;11.506;2023-05-02T13:02:53;19.70;89.40
15690;DHT22;7945;48.816;11.506;2023-05-02T13:05:22;19.90;89.50
15690;DHT22;7945;48.816;11.506;2023-05-02T13:07:49;20.00;88.00
15690;DHT22;7945;48.816;11.506;2023-05-02T13:10:16;20.00;89.70
15690;DHT22;7945;48.816;11.506;2023-05-02T13:12:43;20.00;88.90
15690;DHT22;7945;48.816;11.506;2023-05-02T13:15:11;20.10;87.90
15690;DHT22;7945;48.816;11.506;2023-05-02T13:17:38;20.20;87.50
15690;DHT22;7945;48.816;11.506;2023-05-02T13:20:06;20.20;87.80
15690;DHT22;7945;48.816;11.506;2023-05-02T13:22:34;20.20;88.50
15690;DHT22;7945;48.816;11.506;2023-05-02T13:25:01;20.10;87.20
15690;DHT22;7945;48.816;11.506;2023-05-02T13:27:28;20.00;88.00
15690;DHT22;7945;48.816;11.506;2023-05-02T13:29:55;20.10;87.10
15690;DHT22;7945;48.816;11.506;2023-05-02T13:32:22;20.20;86.60
15690;DHT22;7945;48.816;11.506;2023-05-02T13:34:48;20.10;88.00
15690;DHT22;7945;48.816;11.506;2023-05-02T13:37:15;20.10;89.30
15690;DHT22;7945;48.816;11.506;2023-05-02T13:39:43;20.20;87.40
15690;DHT22;7945;48.816;11.506;2023-05-02T13:42:10;20.10;87.50
15690;DHT22;7945;48.816;11.506;2023-05-02T13:44:37;20.00;87.50
15690;DHT22;7945;48.816;11.506;2023-05-02T13:47:03;20.00;87.20
15690;DHT22;7945;48.816;11.506;2023-05-02T13:49:30;19.80;86.50
15690;DHT22;7945;48.816;11.506;2023-05-02T13:51:57;19.70;87.90
15690;DHT22;7945;48.816;11.506;2023-05-02T13:54:23;19.60;88.50
15690;DHT22;7945;48.816;11.506;2023-05-02T13:56:51;19.50;87.60
15690;DHT22;7945;48.816;11.506;2023-05-02T13:59:18;19.40;88.90
15690;DHT22;7945;48.816;11.506;2023-05-02T14:01:45;19.30;88.50
15690;DHT22;7945;48.816;11.506;2023-05-02T14:04:12;19.20;89.70
15690;DHT22;7945;48.816;11.506;2023-05-02T14:06:38;19.20;90.20
15690;DHT22;7945;48.816;11.506;2023-05-02T14:09:05;19.00;90.60
15690;DHT22;7945;48.816;11.506;2023-05-02T14:11:32;18.90;91.60
15690;DHT22;7945;48.816;11.506;2023-05-02T14:14:00;18.80;94.60
15690;DHT22;7945;48.816;11.506;2023-05-02T14:16:27;18.80;97.70
15690;DHT22;7945;48.816;11.506;2023-05-02T14:18:54;18.40;96.50
15690;DHT22;7945;48.816;11.506;2023-05-02T14:21:21;17.90;95.60
15690;DHT22;7945;48.816;11.506;2023-05-02T14:23:48;17.40;96.30
15690;DHT22;7945;48.816;11.506;2023-05-02T14:26:14;17.10;97.40
15690;DHT22;7945;48.816;11.506;2023-05-02T14:28:41;16.80;97.40
15690;DHT22;7945;48.816;11.506;2023-05-02T14:31:09;16.60;97.60
15690;DHT22;7945;48.816;11.506;2023-05-02T14:33:36;16.50;98.80
15690;DHT22;7945;48.816;11.506;2023-05-02T14:36:03;16.30;98.90
15690;DHT22;7945;48.816;11.506;2023-05-02T14:38:30;16.20;98.50
15690;DHT22;7945;48.816;11.506;2023-05-02T14:40:57;16.10;98.80
15690;DHT22;7945;48.816;11.506;2023-05-02T14:43:24;16.10;98.90
15690;DHT22;7945;48.816;11.506;2023-05-02T14:45:51;16.10;99.30
15690;DHT22;7945;48.816;11.506;2023-05-02T14:48:20;16.00;99.30
15690;DHT22;7945;48.816;11.506;2023-05-02T14:50:48;16.10;98.80
15690;DHT22;7945;48.816;11.506;2023-05-02T14:53:15;16.00;98.80
15690;DHT22;7945;48.816;11.506;2023-05-02T14:55:43;16.00;98.20
15690;DHT22;7945;48.816;11.506;2023-05-02T14:58:09;16.10;99.00
15690;DHT22;7945;48.816;11.506;2023-05-02T15:00:37;16.00;98.60
15690;DHT22;7945;48.816;11.506;2023-05-02T15:03:04;16.00;98.80
15690;DHT22;7945;48.816;11.506;2023-05-02T15:05:33;15.90;99.00
15690;DHT22;7945;48.816;11.506;2023-05-02T15:08:01;15.90;98.60
15690;DHT22;7945;48.816;11.506;2023-05-02T15:10:28;15.90;98.60
15690;DHT22;7945;48.816;11.506;2023-05-02T15:12:55;15.90;98.40
15690;DHT22;7945;48.816;11.506;2023-05-02T15:15:21;15.90;99.00
15690;DHT22;7945;48.816;11.506;2023-05-02T15:17:49;15.80;99.50
15690;DHT22;7945;48.816;11.506;2023-05-02T15:20:16;15.80;99.10
15690;DHT22;7945;48.816;11.506;2023-05-02T15:22:44;15.70;99.10
15690;DHT22;7945;48.816;11.506;2023-05-02T15:25:11;15.70;99.20
15690;DHT22;7945;48.816;11.506;2023-05-02T15:27:38;15.60;99.50
15690;DHT22;7945;48.816;11.506;2023-05-02T15:30:05;15.60;99.50
15690;DHT22;7945;48.816;11.506;2023-05-02T15:32:32;15.50;99.90
15690;DHT22;7945;48.816;11.506;2023-05-02T15:34:59;15.50;99.90
15690;DHT22;7945;48.816;11.506;2023-05-02T15:37:26;15.60;99.90
15690;DHT22;7945;48.816;11.506;2023-05-02T15:39:55;15.80;99.90
15690;DHT22;7945;48.816;11.506;2023-05-02T15:42:21;15.90;99.70
15690;DHT22;7945;48.816;11.506;2023-05-02T15:44:48;16.10;99.60